Time;durP1;ratioP1;P1;durP2;ratioP2;P2;SDS_P1;SDS_P2;PMS_P1;PMS_P2;Temp;Humidity;BMP_temperature;BMP_pressure;BME280_temperature;BME280_humidity;BME280_pressure;Samples;Min_cycle;Max_cycle;Signal;HPM_P1;HPM_P2
2021/10/21 00:00:55;;;;;;;21.45;9.55;;;;;;;6.62;100.00;97982.13;5014775;28;20481;-59
2021/10/21 00:03:21;;;;;;;15.57;6.82;;;;;;;6.63;100.00;97937.34;5021831;28;20049;-60
2021/10/21 00:05:48;;;;;;;14.40;7.72;;;;;;;6.68;100.00;97940.53;5021273;28;20525;-59
2021/10/21 00:08:14;;;;;;;18.48;8.68;;;;;;;6.71;100.00;97900.81;5038330;28;20029;-60
2021/10/21 00:10:40;;;;;;;7.97;4.60;;;;;;;6.72;100.00;97908.50;5021800;28;20796;-60
2021/10/21 00:13:06;;;;;;;21.38;9.80;;;;;;;6.78;100.00;97909.97;5012619;28;20096;-60
2021/10/21 00:15:32;;;;;;;14.25;6.70;;;;;;;6.79;100.00;97921.97;5025933;28;20093;-61
2021/10/21 00:17:57;;;;;;;23.40;9.50;;;;;;;6.85;100.00;97901.03;5036141;28;20083;-60
2021/10/21 00:20:23;;;;;;;19.35;9.60;;;;;;;6.88;100.00;97898.28;5024621;28;20056;-61
2021/10/21 00:22:49;;;;;;;22.70;9.52;;;;;;;6.91;100.00;97920.56;5026714;28;20041;-59
2021/10/21 00:25:15;;;;;;;11.30;6.63;;;;;;;6.86;100.00;97922.50;5013794;28;20041;-59
2021/10/21 00:27:41;;;;;;;22.77;10.38;;;;;;;6.97;100.00;97941.75;5025501;28;20048;-61
2021/10/21 00:30:07;;;;;;;10.20;5.75;;;;;;;7.01;100.00;97916.63;5030803;28;20049;-59
2021/10/21 00:32:34;;;;;;;17.90;8.25;;;;;;;7.07;100.00;97916.28;5040400;28;20097;-59
2021/10/21 00:34:59;;;;;;;25.15;10.80;;;;;;;7.09;100.00;97905.00;5049627;28;20488;-60
2021/10/21 00:37:25;;;;;;;13.55;7.95;;;;;;;7.15;100.00;97898.69;5047023;28;20057;-60
2021/10/21 00:39:51;;;;;;;18.98;8.20;;;;;;;7.17;100.00;97936.44;5027259;28;20520;-60
2021/10/21 00:42:17;;;;;;;18.60;9.48;;;;;;;7.16;100.00;97906.38;5041184;28;20056;-59
2021/10/21 00:44:43;;;;;;;17.50;8.73;;;;;;;7.20;100.00;97894.97;5034061;28;20629;-59
2021/10/21 00:47:09;;;;;;;21.40;9.25;;;;;;;7.23;100.00;97892.22;5038878;28;20045;-61
2021/10/21 00:49:34;;;;;;;12.35;5.95;;;;;;;7.27;100.00;97902.44;5042794;28;20056;-60
2021/10/21 00:52:00;;;;;;;18.02;8.40;;;;;;;7.31;100.00;97857.41;5047560;28;20144;-59
2021/10/21 00:54:27;;;;;;;18.55;9.45;;;;;;;7.33;100.00;97894.38;5045082;28;20037;-59
2021/10/21 00:56:54;;;;;;;16.75;9.27;;;;;;;7.36;100.00;97869.19;5030738;28;20045;-60
2021/10/21 00:59:20;;;;;;;17.95;8.77;;;;;;;7.39;100.00;97850.09;5036780;28;20127;-59
2021/10/21 01:01:46;;;;;;;10.57;6.75;;;;;;;7.42;100.00;97839.63;5031430;28;20048;-60
2021/10/21 01:04:12;;;;;;;17.38;8.15;;;;;;;7.43;100.00;97849.06;5031658;28;22138;-60
2021/10/21 01:06:40;;;;;;;14.15;7.53;;;;;;;7.47;100.00;97833.31;5037186;28;20057;-60
2021/10/21 01:09:06;;;;;;;9.68;5.55;;;;;;;7.49;100.00;97833.19;5044184;28;20041;-60
2021/10/21 01:11:32;;;;;;;21.83;9.63;;;;;;;7.51;100.00;97836.56;5048929;28;20044;-60
2021/10/21 01:13:58;;;;;;;18.75;9.77;;;;;;;7.53;100.00;97829.56;5048999;28;20114;-60
2021/10/21 01:16:24;;;;;;;20.40;9.98;;;;;;;7.53;100.00;97839.91;5047570;28;20501;-61
2021/10/21 01:18:50;;;;;;;18.92;9.32;;;;;;;7.53;100.00;97817.47;5039601;28;20044;-61
2021/10/21 01:21:16;;;;;;;17.42;8.52;;;;;;;7.58;100.00;97809.47;5017264;28;20091;-59
2021/10/21 01:23:42;;;;;;;14.02;5.63;;;;;;;7.69;100.00;97809.75;5008485;28;20053;-59
2021/10/21 01:26:13;;;;;;;12.70;7.72;;;;;;;7.73;100.00;97842.28;5034794;28;20041;-60
2021/10/21 01:28:40;;;;;;;16.48;8.02;;;;;;;7.77;100.00;97838.63;5021245;28;20037;-60
2021/10/21 01:31:07;;;;;;;19.70;9.43;;;;;;;7.81;100.00;97847.88;5048899;28;20092;-60
2021/10/21 01:33:34;;;;;;;24.42;10.65;;;;;;;7.86;100.00;97830.38;5013995;28;20037;-60
2021/10/21 01:36:00;;;;;;;11.15;6.18;;;;;;;7.78;100.00;97798.06;5023823;28;20056;-61
2021/10/21 01:38:25;;;;;;;19.15;9.02;;;;;;;7.85;100.00;97795.06;5020631;28;20053;-60
2021/10/21 01:40:52;;;;;;;11.70;6.22;;;;;;;7.89;100.00;97793.16;5018743;28;20041;-59
2021/10/21 01:43:18;;;;;;;17.17;8.45;;;;;;;7.95;100.00;97801.44;5038019;28;20513;-60
2021/10/21 01:45:43;;;;;;;20.45;8.80;;;;;;;8.02;100.00;97792.41;5018676;28;20045;-62
2021/10/21 01:48:09;;;;;;;22.70;9.65;;;;;;;8.05;100.00;97812.97;5028628;28;20132;-59
2021/10/21 01:50:35;;;;;;;14.80;7.43;;;;;;;8.08;100.00;97822.28;5016138;28;20065;-61
2021/10/21 01:53:01;;;;;;;13.50;7.25;;;;;;;8.10;100.00;97810.13;5046513;28;20052;-60
2021/10/21 01:55:27;;;;;;;17.73;8.65;;;;;;;8.12;100.00;97790.16;5030630;28;20040;-60
2021/10/21 01:57:53;;;;;;;19.73;9.55;;;;;;;8.17;100.00;97777.78;5031744;28;20568;-60
2021/10/21 02:00:22;;;;;;;21.95;10.57;;;;;;;8.07;100.00;97746.41;5041946;28;20041;-60
2021/10/21 02:02:49;;;;;;;9.95;6.32;;;;;;;8.22;100.00;97780.13;5015241;28;20115;-59
2021/10/21 02:05:16;;;;;;;17.52;8.27;;;;;;;8.24;100.00;97792.06;5015238;28;20048;-59
2021/10/21 02:07:42;;;;;;;23.00;11.13;;;;;;;8.26;100.00;97771.28;5015971;28;20076;-59
2021/10/21 02:10:10;;;;;;;18.88;10.15;;;;;;;8.29;100.00;97771.09;5022143;28;20056;-61
2021/10/21 02:12:36;;;;;;;18.98;7.70;;;;;;;8.31;100.00;97798.63;5023503;28;20045;-59
2021/10/21 02:15:03;;;;;;;16.02;8.60;;;;;;;8.25;100.00;97772.22;5015891;28;20528;-60
2021/10/21 02:17:28;;;;;;;11.65;7.07;;;;;;;8.39;100.00;97772.28;5017748;28;20514;-59
2021/10/21 02:19:54;;;;;;;17.83;8.63;;;;;;;8.43;100.00;97790.16;5017874;28;20072;-61
2021/10/21 02:22:20;;;;;;;12.57;6.28;;;;;;;8.34;100.00;97759.63;5019162;28;20072;-59
2021/10/21 02:24:46;;;;;;;20.33;9.20;;;;;;;8.48;100.00;97775.19;5014032;28;20053;-60
2021/10/21 02:27:12;;;;;;;17.70;8.95;;;;;;;8.55;100.00;97761.91;5014930;28;20097;-59
2021/10/21 02:29:38;;;;;;;18.73;10.68;;;;;;;8.50;100.00;97759.59;5028619;28;20037;-60
2021/10/21 02:32:04;;;;;;;18.63;9.13;;;;;;;8.54;100.00;97757.66;5037195;28;20036;-60
2021/10/21 02:34:29;;;;;;;15.73;7.55;;;;;;;8.65;100.00;97779.44;5046428;28;20067;-60
2021/10/21 02:36:55;;;;;;;19.95;10.68;;;;;;;8.69;100.00;97778.31;5031080;28;20044;-60
2021/10/21 02:39:21;;;;;;;18.40;9.10;;;;;;;8.71;100.00;97750.59;5039598;28;20060;-59
2021/10/21 02:41:47;;;;;;;13.13;7.20;;;;;;;8.75;100.00;97741.72;5036662;28;20103;-59
2021/10/21 02:44:12;;;;;;;16.98;9.70;;;;;;;8.77;100.00;97732.09;5035851;28;20044;-60
2021/10/21 02:46:38;;;;;;;19.95;10.15;;;;;;;8.75;100.00;97723.56;5051482;28;20574;-60
2021/10/21 02:49:04;;;;;;;14.82;8.57;;;;;;;8.85;100.00;97747.19;5048597;28;20036;-62
2021/10/21 02:51:30;;;;;;;19.33;10.30;;;;;;;8.90;100.00;97732.19;5049921;28;20567;-60
2021/10/21 02:53:56;;;;;;;16.63;8.77;;;;;;;8.95;100.00;97735.34;5044999;28;20043;-59
2021/10/21 02:56:21;;;;;;;18.08;7.80;;;;;;;8.96;100.00;97744.81;5050342;28;20128;-60
2021/10/21 02:58:47;;;;;;;11.35;6.72;;;;;;;9.01;100.00;97728.97;5045120;28;20078;-59
2021/10/21 03:01:13;;;;;;;21.08;11.85;;;;;;;9.05;100.00;97744.28;5031598;28;20504;-60
2021/10/21 03:03:40;;;;;;;21.92;12.57;;;;;;;9.02;100.00;97707.31;5017910;28;20051;-61
2021/10/21 03:06:06;;;;;;;19.48;10.55;;;;;;;9.16;100.00;97734.09;5048581;28;20063;-60
2021/10/21 03:08:31;;;;;;;21.75;10.23;;;;;;;9.16;100.00;97728.91;5051492;28;20501;-60
2021/10/21 03:10:57;;;;;;;15.55;8.88;;;;;;;9.21;100.00;97729.47;5037531;28;20041;-59
2021/10/21 03:13:23;;;;;;;18.38;9.18;;;;;;;9.24;100.00;97738.81;5028845;28;20041;-61
2021/10/21 03:15:48;;;;;;;21.23;11.70;;;;;;;9.24;100.00;97703.38;5014619;28;20040;-59
2021/10/21 03:18:14;;;;;;;18.88;8.55;;;;;;;9.31;100.00;97701.25;5015379;28;20049;-59
2021/10/21 03:20:40;;;;;;;14.48;7.60;;;;;;;9.30;100.00;97682.25;5026072;28;20133;-59
2021/10/21 03:23:06;;;;;;;26.95;12.90;;;;;;;9.34;100.00;97707.06;5061477;28;20044;-59
2021/10/21 03:25:31;;;;;;;19.70;10.68;;;;;;;9.35;100.00;97693.19;5033614;28;20041;-60
2021/10/21 03:27:57;;;;;;;20.50;9.50;;;;;;;9.37;100.00;97687.88;5031408;28;20045;-59
2021/10/21 03:30:23;;;;;;;17.65;9.10;;;;;;;9.39;100.00;97680.00;5044174;28;20040;-59
2021/10/21 03:32:49;;;;;;;22.27;11.82;;;;;;;9.42;100.00;97693.63;5038173;28;20128;-59
2021/10/21 03:35:15;;;;;;;17.95;9.88;;;;;;;9.43;100.00;97700.47;5039452;28;20095;-60
2021/10/21 03:37:41;;;;;;;21.73;9.52;;;;;;;9.49;100.00;97689.72;5047704;28;20463;-59
2021/10/21 03:40:09;;;;;;;22.92;12.45;;;;;;;9.48;100.00;97695.84;5029910;28;20033;-59
2021/10/21 03:42:34;;;;;;;25.67;12.32;;;;;;;9.50;100.00;97681.03;5039165;28;20081;-59
2021/10/21 03:45:00;;;;;;;17.60;9.48;;;;;;;9.57;100.00;97700.47;5040280;28;20509;-59
2021/10/21 03:47:26;;;;;;;26.15;12.75;;;;;;;9.62;100.00;97703.63;5048312;28;20591;-60
2021/10/21 03:49:52;;;;;;;24.77;12.73;;;;;;;9.53;100.00;97680.81;5047003;28;20040;-59
2021/10/21 03:52:19;;;;;;;29.15;14.65;;;;;;;9.68;100.00;97685.06;5048562;28;20114;-59
2021/10/21 03:54:45;;;;;;;27.52;13.57;;;;;;;9.72;100.00;97681.34;5034802;28;20045;-60
2021/10/21 03:57:11;;;;;;;19.17;10.45;;;;;;;9.74;100.00;97713.22;5035007;28;20129;-60
2021/10/21 03:59:37;;;;;;;23.33;11.20;;;;;;;9.79;100.00;97702.53;5042700;28;20128;-61
2021/10/21 04:02:03;;;;;;;23.08;11.35;;;;;;;9.81;100.00;97690.31;5031833;28;20425;-61
2021/10/21 04:04:29;;;;;;;31.77;15.95;;;;;;;9.84;100.00;97687.50;5032017;28;21572;-59
2021/10/21 04:06:55;;;;;;;21.20;10.88;;;;;;;9.87;100.00;97686.50;5040206;28;20065;-61
2021/10/21 04:09:21;;;;;;;28.40;14.52;;;;;;;9.92;100.00;97679.25;5045512;28;20048;-60
2021/10/21 04:11:47;;;;;;;21.17;10.30;;;;;;;9.95;100.00;97694.63;5012711;28;20047;-59
2021/10/21 04:14:13;;;;;;;18.40;11.10;;;;;;;9.99;100.00;97677.94;5030208;28;20519;-60
2021/10/21 04:16:39;;;;;;;25.02;12.50;;;;;;;10.02;100.00;97668.19;5029089;28;20052;-60
2021/10/21 04:19:05;;;;;;;18.60;10.48;;;;;;;9.99;100.00;97657.19;5044461;28;20044;-59
2021/10/21 04:21:30;;;;;;;26.63;14.00;;;;;;;10.08;100.00;97649.63;5020484;28;20041;-57
2021/10/21 04:23:56;;;;;;;20.27;11.02;;;;;;;10.13;100.00;97651.91;5037991;28;20495;-59
2021/10/21 04:26:22;;;;;;;19.17;11.93;;;;;;;10.13;100.00;97660.53;5029384;28;20102;-59
2021/10/21 04:28:49;;;;;;;26.30;14.15;;;;;;;10.23;100.00;97668.59;5045581;28;20513;-60
2021/10/21 04:31:15;;;;;;;18.05;11.15;;;;;;;10.27;100.00;97654.47;5038676;28;20428;-60
2021/10/21 04:33:41;;;;;;;22.52;12.13;;;;;;;10.33;100.00;97642.84;5047662;28;20128;-62
2021/10/21 04:36:06;;;;;;;21.83;11.82;;;;;;;10.35;100.00;97644.44;5024831;28;20124;-59
2021/10/21 04:38:32;;;;;;;20.67;10.45;;;;;;;10.38;100.00;97652.00;5020003;28;20060;-59
2021/10/21 04:40:58;;;;;;;15.93;9.00;;;;;;;10.43;100.00;97654.31;5026206;28;20040;-60
2021/10/21 04:43:24;;;;;;;16.90;8.63;;;;;;;10.47;100.00;97663.53;5028925;28;20036;-60
2021/10/21 04:45:50;;;;;;;18.20;10.88;;;;;;;10.51;100.00;97652.03;5026095;28;20037;-59
2021/10/21 04:48:16;;;;;;;15.93;10.02;;;;;;;10.43;100.00;97643.91;5027269;28;20041;-60
2021/10/21 04:50:42;;;;;;;23.10;12.20;;;;;;;10.52;100.00;97661.50;5027241;28;20071;-59
2021/10/21 04:53:08;;;;;;;22.50;11.30;;;;;;;10.56;100.00;97688.94;5013609;28;20049;-59
2021/10/21 04:55:36;;;;;;;16.08;9.05;;;;;;;10.57;100.00;97634.25;5028785;28;20191;-59
2021/10/21 04:58:03;;;;;;;17.73;10.70;;;;;;;10.56;100.00;97632.63;5040429;28;20245;-61
2021/10/21 05:00:30;;;;;;;14.82;9.00;;;;;;;10.54;100.00;97616.28;5032570;28;20059;-59
2021/10/21 05:02:56;;;;;;;20.45;10.10;;;;;;;10.43;100.00;97610.13;5029859;28;20056;-60
2021/10/21 05:05:22;;;;;;;14.93;9.35;;;;;;;10.26;100.00;97652.81;5028482;28;20034;-60
2021/10/21 05:07:48;;;;;;;15.48;9.00;;;;;;;10.19;100.00;97633.38;5030044;28;20075;-57
2021/10/21 05:10:14;;;;;;;16.30;9.43;;;;;;;10.20;100.00;97624.66;5028547;28;20509;-60
2021/10/21 05:12:40;;;;;;;15.90;10.00;;;;;;;10.20;100.00;97619.47;5028463;28;20049;-63
2021/10/21 05:15:07;;;;;;;21.02;11.68;;;;;;;10.22;100.00;97606.38;5027559;28;20063;-61
2021/10/21 05:17:35;;;;;;;19.80;11.15;;;;;;;10.23;100.00;97621.03;5035294;28;20472;-62
2021/10/21 05:20:00;;;;;;;13.68;7.78;;;;;;;10.17;100.00;97606.69;5005208;28;20026;-61
2021/10/21 05:22:26;;;;;;;20.65;11.50;;;;;;;10.24;100.00;97628.72;5018945;28;20579;-60
2021/10/21 05:24:52;;;;;;;20.30;11.25;;;;;;;10.20;100.00;97638.47;5048400;28;20045;-60
2021/10/21 05:27:18;;;;;;;22.23;12.05;;;;;;;10.17;100.00;97623.09;5032293;28;20041;-63
2021/10/21 05:29:43;;;;;;;25.50;11.98;;;;;;;10.16;100.00;97643.94;5031316;28;20136;-61
2021/10/21 05:32:09;;;;;;;25.13;11.93;;;;;;;10.15;100.00;97650.88;5032241;28;20049;-60
2021/10/21 05:34:37;;;;;;;20.20;10.75;;;;;;;10.16;100.00;97655.16;5032848;28;20041;-62
2021/10/21 05:37:04;;;;;;;21.73;11.18;;;;;;;10.20;100.00;97681.78;5032263;28;20063;-60
2021/10/21 05:39:31;;;;;;;21.17;11.13;;;;;;;10.25;100.00;97671.09;5017416;28;20038;-61
2021/10/21 05:41:57;;;;;;;15.20;9.23;;;;;;;10.24;100.00;97646.91;5028412;28;20046;-59
2021/10/21 05:44:26;;;;;;;24.45;12.32;;;;;;;10.28;100.00;97670.88;5011890;28;20637;-60
2021/10/21 05:46:53;;;;;;;20.38;10.27;;;;;;;10.30;100.00;97682.03;5037076;28;20053;-60
2021/10/21 05:49:19;;;;;;;21.40;10.52;;;;;;;10.30;100.00;97692.41;5011493;28;20572;-60
2021/10/21 05:51:45;;;;;;;20.63;12.40;;;;;;;10.32;100.00;97668.00;5012885;28;20060;-60
2021/10/21 05:54:12;;;;;;;16.20;9.63;;;;;;;10.33;100.00;97689.59;5011814;28;20042;-61
2021/10/21 05:56:38;;;;;;;22.20;12.70;;;;;;;10.28;100.00;97670.88;5035382;28;20047;-61
2021/10/21 05:59:04;;;;;;;23.05;10.73;;;;;;;10.18;100.00;97671.50;5031649;28;20041;-61
2021/10/21 06:01:30;;;;;;;28.55;11.95;;;;;;;10.10;100.00;97650.34;5031136;28;20041;-64
2021/10/21 06:03:56;;;;;;;26.50;13.02;;;;;;;10.08;100.00;97653.97;5032734;28;20033;-65
2021/10/21 06:06:22;;;;;;;25.80;10.80;;;;;;;10.00;100.00;97659.66;5029105;28;20132;-63
2021/10/21 06:08:48;;;;;;;13.00;7.72;;;;;;;9.90;100.00;97636.97;5012106;28;20144;-62
2021/10/21 06:11:14;;;;;;;28.10;13.65;;;;;;;10.00;100.00;97643.25;5012324;28;20056;-62
2021/10/21 06:13:40;;;;;;;15.75;9.32;;;;;;;9.99;100.00;97647.63;5012603;28;20510;-63
2021/10/21 06:16:07;;;;;;;22.20;10.27;;;;;;;9.97;100.00;97664.22;5012806;28;20058;-63
2021/10/21 06:18:33;;;;;;;18.33;9.85;;;;;;;9.99;100.00;97671.00;5030508;28;20045;-62
2021/10/21 06:21:01;;;;;;;27.58;13.27;;;;;;;10.03;100.00;97658.63;5018350;28;20088;-62
2021/10/21 06:23:27;;;;;;;21.15;9.63;;;;;;;10.02;100.00;97647.41;5020125;28;20428;-61
2021/10/21 06:25:53;;;;;;;28.30;13.35;;;;;;;10.01;100.00;97637.97;5019958;28;20057;-63
2021/10/21 06:28:19;;;;;;;18.25;8.38;;;;;;;10.03;100.00;97658.63;5031654;28;20539;-61
2021/10/21 06:30:46;;;;;;;15.00;7.65;;;;;;;10.03;100.00;97630.91;5031552;28;20045;-61
2021/10/21 06:33:13;;;;;;;24.27;12.18;;;;;;;10.05;100.00;97642.03;5022115;28;20513;-60
2021/10/21 06:35:43;;;;;;;27.17;13.57;;;;;;;10.06;100.00;97651.47;5027505;28;20145;-61
2021/10/21 06:38:09;;;;;;;19.25;9.40;;;;;;;10.08;100.00;97670.41;5012955;28;20124;-61
2021/10/21 06:40:35;;;;;;;21.52;11.63;;;;;;;10.07;100.00;97670.50;5030851;28;20133;-59
2021/10/21 06:43:01;;;;;;;21.95;11.07;;;;;;;10.09;100.00;97655.66;5029335;28;20132;-60
2021/10/21 06:45:27;;;;;;;13.20;7.20;;;;;;;10.10;100.00;97654.72;5025646;28;20468;-61
2021/10/21 06:47:53;;;;;;;26.85;12.63;;;;;;;10.15;100.00;97647.47;5044505;28;20763;-59
2021/10/21 06:50:20;;;;;;;23.17;10.18;;;;;;;10.18;100.00;97642.09;5022314;28;20050;-59
2021/10/21 06:52:47;;;;;;;25.58;11.18;;;;;;;10.18;100.00;97640.34;5023998;28;20088;-61
2021/10/21 06:55:14;;;;;;;21.60;10.68;;;;;;;10.20;100.00;97624.66;5020995;28;20065;-60
2021/10/21 06:57:55;;;;;;;15.82;7.60;;;;;;;10.22;100.00;97656.53;5032566;28;20049;-60
2021/10/21 07:00:21;;;;;;;12.35;6.38;;;;;;;10.24;100.00;97609.72;5031930;28;20045;-61
2021/10/21 07:02:47;;;;;;;19.02;10.50;;;;;;;10.21;100.00;97600.34;5029697;28;20534;-60
2021/10/21 07:05:13;;;;;;;25.75;10.80;;;;;;;10.31;100.00;97596.19;5025171;28;20046;-62
2021/10/21 07:07:40;;;;;;;13.63;6.82;;;;;;;10.36;100.00;97607.16;5023087;28;20045;-60
2021/10/21 07:10:08;;;;;;;19.33;9.93;;;;;;;10.39;100.00;97612.13;5030553;28;20091;-60
2021/10/21 07:12:35;;;;;;;16.33;8.80;;;;;;;10.44;100.00;97615.25;5015855;28;20426;-60
2021/10/21 07:15:01;;;;;;;18.50;7.78;;;;;;;10.46;100.00;97630.72;5022938;28;20076;-51
2021/10/21 07:17:28;;;;;;;14.23;8.48;;;;;;;10.49;100.00;97651.31;5020102;28;20052;-60
2021/10/21 07:19:54;;;;;;;11.70;6.93;;;;;;;10.52;100.00;97654.50;5026359;28;20129;-61
2021/10/21 07:22:20;;;;;;;12.32;7.50;;;;;;;10.50;100.00;97648.59;5033033;28;20181;-59
2021/10/21 07:24:45;;;;;;;14.93;7.07;;;;;;;10.55;100.00;97651.72;5022617;28;20053;-60
2021/10/21 07:27:12;;;;;;;16.85;8.43;;;;;;;10.59;100.00;97662.75;5029651;28;20103;-61
2021/10/21 07:29:37;;;;;;;11.02;7.28;;;;;;;10.58;100.00;97656.72;5014486;28;20057;-61
2021/10/21 07:32:03;;;;;;;10.85;6.40;;;;;;;10.63;100.00;97672.00;5019715;28;20083;-59
2021/10/21 07:34:29;;;;;;;13.35;7.25;;;;;;;10.68;100.00;97663.91;5017643;28;20045;-61
2021/10/21 07:36:57;;;;;;;15.55;8.10;;;;;;;10.71;100.00;97671.50;5013890;28;20045;-60
2021/10/21 07:39:24;;;;;;;15.45;10.35;;;;;;;10.77;100.00;97678.88;5013774;28;20109;-60
2021/10/21 07:41:54;;;;;;;14.45;8.65;;;;;;;10.80;100.00;97676.91;5019553;28;20080;-60
2021/10/21 07:44:20;;;;;;;15.70;10.00;;;;;;;10.82;100.00;97688.03;5021796;28;20045;-60
2021/10/21 07:46:47;;;;;;;14.63;9.70;;;;;;;10.85;100.00;97674.81;5018544;28;20591;-62
2021/10/21 07:49:13;;;;;;;15.43;9.85;;;;;;;10.89;100.00;97686.66;5022409;28;20041;-61
2021/10/21 07:51:40;;;;;;;11.60;7.63;;;;;;;10.91;100.00;97702.19;5022518;28;20050;-61
2021/10/21 07:54:07;;;;;;;12.50;8.38;;;;;;;10.92;100.00;97696.88;5013247;28;20041;-60
2021/10/21 07:56:33;;;;;;;15.75;10.40;;;;;;;10.96;100.00;97689.69;5024192;28;20351;-61
2021/10/21 07:59:00;;;;;;;18.13;10.00;;;;;;;11.01;100.00;97691.06;5023556;28;20037;-60
2021/10/21 08:01:26;;;;;;;16.73;10.60;;;;;;;11.03;100.00;97689.19;5024348;28;20477;-59
2021/10/21 08:03:52;;;;;;;19.55;11.15;;;;;;;11.03;100.00;97675.34;5030178;28;20048;-59
2021/10/21 08:06:18;;;;;;;20.05;10.35;;;;;;;11.05;100.00;97666.50;5022790;28;20037;-61
2021/10/21 08:08:44;;;;;;;17.50;9.90;;;;;;;11.11;100.00;97680.84;5025540;28;20140;-61
2021/10/21 08:11:10;;;;;;;21.95;10.93;;;;;;;11.12;100.00;97659.13;5030484;28;20045;-63
2021/10/21 08:13:36;;;;;;;17.08;9.98;;;;;;;11.14;100.00;97666.81;5028662;28;20037;-61
2021/10/21 08:16:02;;;;;;;17.17;10.23;;;;;;;11.15;100.00;97656.28;5009822;28;20034;-60
2021/10/21 08:18:28;;;;;;;14.73;9.10;;;;;;;11.15;100.00;97658.88;5023939;28;20042;-60
2021/10/21 08:20:54;;;;;;;18.48;10.88;;;;;;;11.14;100.00;97646.03;5020444;28;20037;-60
2021/10/21 08:23:20;;;;;;;18.08;10.13;;;;;;;11.16;100.00;97628.53;5040868;28;20579;-61
2021/10/21 08:25:46;;;;;;;17.85;9.05;;;;;;;11.24;100.00;97655.69;5027273;28;20888;-61
2021/10/21 08:28:12;;;;;;;13.88;7.35;;;;;;;11.28;100.00;97653.69;5036989;28;20596;-62
2021/10/21 08:30:41;;;;;;;17.67;9.95;;;;;;;11.27;100.00;97639.84;5037530;28;20042;-59
2021/10/21 08:33:07;;;;;;;16.40;8.97;;;;;;;11.39;100.00;97641.59;5036803;28;20041;-61
2021/10/21 08:35:34;;;;;;;14.10;7.38;;;;;;;11.44;100.00;97655.13;5023328;28;20312;-61
2021/10/21 08:38:01;;;;;;;18.42;10.18;;;;;;;11.45;100.00;97640.34;5016516;28;20132;-61
2021/10/21 08:40:31;;;;;;;18.45;11.55;;;;;;;11.50;100.00;97653.03;5009438;28;20033;-60
2021/10/21 08:42:57;;;;;;;19.73;9.57;;;;;;;11.46;100.00;97644.63;5011940;28;20050;-60
2021/10/21 08:45:26;;;;;;;19.63;10.95;;;;;;;11.56;100.00;97656.03;5023306;28;20037;-61
2021/10/21 08:47:55;;;;;;;20.70;11.73;;;;;;;11.57;100.00;97659.44;5027722;28;20041;-62
2021/10/21 08:50:21;;;;;;;18.58;10.43;;;;;;;11.60;100.00;97649.66;5027395;28;20084;-60
2021/10/21 08:52:47;;;;;;;15.85;9.25;;;;;;;11.55;100.00;97630.09;5020193;28;20536;-60
2021/10/21 08:55:14;;;;;;;21.15;11.00;;;;;;;11.55;100.00;97630.09;5008309;28;20052;-60
2021/10/21 08:57:41;;;;;;;19.15;10.25;;;;;;;11.55;100.00;97625.75;5015583;28;20100;-64
2021/10/21 09:00:08;;;;;;;17.92;10.55;;;;;;;11.60;100.00;97638.41;5022538;28;20484;-71
2021/10/21 09:02:54;;;;;;;19.92;8.52;;;;;;;11.66;100.00;97646.63;5006914;28;20045;-62
2021/10/21 09:08:13;;;;;;;16.30;10.88;;;;;;;11.75;100.00;97661.63;4994838;28;20502;-60
2021/10/21 09:10:57;;;;;;;16.95;10.13;;;;;;;11.80;100.00;97669.94;5009185;28;20481;-59
2021/10/21 09:13:31;;;;;;;12.70;7.72;;;;;;;11.81;100.00;97661.19;5012071;28;20045;-60
2021/10/21 09:15:58;;;;;;;11.40;7.85;;;;;;;11.78;100.00;97661.38;5009426;28;20042;-60
2021/10/21 09:18:26;;;;;;;14.68;7.65;;;;;;;11.78;100.00;97695.22;5021692;28;20485;-59
2021/10/21 09:20:52;;;;;;;16.33;8.43;;;;;;;11.80;100.00;97697.72;5020037;28;20033;-59
2021/10/21 09:23:19;;;;;;;15.13;8.77;;;;;;;11.83;100.00;97692.28;5027214;28;20067;-60
2021/10/21 09:25:46;;;;;;;18.02;9.02;;;;;;;11.81;100.00;97697.63;5013909;28;20042;-61
2021/10/21 09:28:21;;;;;;;20.13;10.15;;;;;;;11.81;100.00;97705.44;5019682;28;20071;-60
2021/10/21 09:31:08;;;;;;;15.45;9.23;;;;;;;11.83;100.00;97689.69;5016323;28;20536;-59
2021/10/21 09:33:48;;;;;;;19.58;9.50;;;;;;;11.85;100.00;97678.25;5014238;28;20053;-59
2021/10/21 09:36:20;;;;;;;15.27;8.93;;;;;;;11.84;100.00;97684.38;5013572;28;20125;-57
2021/10/21 09:38:55;;;;;;;14.40;8.77;;;;;;;11.86;100.00;97698.13;5032654;28;20056;-59
2021/10/21 09:41:24;;;;;;;17.45;8.95;;;;;;;11.82;100.00;97685.44;5019575;28;20480;-57
2021/10/21 09:43:53;;;;;;;;;;;;;;;11.87;100.00;97688.56;5017464;28;20038;-57
2021/10/21 09:46:42;;;;;;;15.35;8.70;;;;;;;11.85;100.00;97709.47;5032161;28;19917;-57
2021/10/21 09:49:44;;;;;;;16.20;8.52;;;;;;;11.84;100.00;97714.78;5021298;28;20379;-54
2021/10/21 09:52:21;;;;;;;12.30;8.20;;;;;;;11.87;100.00;97706.78;5018913;28;20057;-60
2021/10/21 09:54:48;;;;;;;14.05;8.40;;;;;;;11.91;100.00;97690.00;5017666;28;20072;-59
2021/10/21 09:57:17;;;;;;;15.02;8.90;;;;;;;11.93;100.00;97685.53;5016974;28;20469;-59
2021/10/21 09:59:43;;;;;;;;;;;;;;;11.98;100.00;97706.84;5014876;28;20038;-60
2021/10/21 10:02:19;;;;;;;9.68;5.55;;;;;;;11.98;100.00;97693.00;5047236;28;20432;-59
2021/10/21 10:04:51;;;;;;;13.77;7.88;;;;;;;12.03;100.00;97709.13;5008324;28;20486;-60
2021/10/21 10:07:26;;;;;;;9.75;5.80;;;;;;;12.01;100.00;97701.41;5015009;28;20563;-60
2021/10/21 10:09:58;;;;;;;15.63;9.00;;;;;;;12.06;100.00;97704.50;5013413;28;20152;-62
2021/10/21 10:12:24;;;;;;;13.80;8.30;;;;;;;12.02;100.00;97699.63;5011730;28;20567;-61
2021/10/21 10:14:50;;;;;;;12.93;8.30;;;;;;;12.10;100.00;97692.94;5016187;28;20073;-60
2021/10/21 10:17:17;;;;;;;12.63;7.25;;;;;;;12.12;100.00;97704.06;5032260;28;20139;-59
2021/10/21 10:19:45;;;;;;;12.20;8.43;;;;;;;12.15;100.00;97690.81;5020207;28;20046;-60
2021/10/21 10:22:32;;;;;;;12.20;7.47;;;;;;;12.16;100.00;97686.44;5028688;28;20038;-62
2021/10/21 10:24:59;;;;;;;13.05;7.10;;;;;;;12.25;100.00;97699.63;5029098;28;20080;-60
2021/10/21 10:27:32;;;;;;;16.08;8.68;;;;;;;12.26;100.00;97684.84;5012087;28;20136;-60
2021/10/21 10:30:00;;;;;;;9.40;6.28;;;;;;;12.28;100.00;97681.19;5035423;28;20042;-60
2021/10/21 10:32:44;;;;;;;14.50;7.60;;;;;;;12.30;100.00;97665.41;5021142;28;20046;-60
2021/10/21 10:35:30;;;;;;;12.95;8.52;;;;;;;12.39;100.00;97653.50;5020676;28;20460;-60
2021/10/21 10:37:58;;;;;;;15.95;8.77;;;;;;;12.63;100.00;97685.56;4999618;28;20100;-62
2021/10/21 10:40:46;;;;;;;10.57;6.50;;;;;;;12.62;98.97;97678.69;5039762;28;20054;-60
2021/10/21 10:43:14;;;;;;;10.13;6.78;;;;;;;12.65;98.68;97687.13;4994917;28;20099;-59
2021/10/21 10:45:46;;;;;;;13.23;6.43;;;;;;;12.78;97.13;97687.00;5029028;28;20141;-61
2021/10/21 10:48:13;;;;;;;12.73;7.72;;;;;;;12.80;97.33;97686.91;5017633;28;20050;-60
2021/10/21 10:50:42;;;;;;;9.18;6.50;;;;;;;12.77;96.73;97713.22;5014076;28;20050;-61
2021/10/21 10:53:08;;;;;;;12.18;7.13;;;;;;;12.69;96.99;97679.88;5016133;28;20040;-60
2021/10/21 10:55:50;;;;;;;12.15;7.60;;;;;;;12.89;96.15;97705.31;5015749;28;20109;-61
2021/10/21 10:58:29;;;;;;;14.45;7.60;;;;;;;13.00;95.24;97699.28;5016674;28;20124;-60
2021/10/21 11:00:59;;;;;;;8.55;5.43;;;;;;;12.87;94.87;97686.34;5017164;28;20049;-61
2021/10/21 11:03:35;;;;;;;8.77;5.28;;;;;;;12.91;94.40;97699.97;5047181;28;20080;-60
2021/10/21 11:06:05;;;;;;;10.98;6.43;;;;;;;12.93;94.97;97704.13;5001403;28;20056;-60
2021/10/21 11:08:54;;;;;;;13.77;8.23;;;;;;;12.98;94.47;97702.00;5016416;28;20505;-61
2021/10/21 11:11:42;;;;;;;13.90;7.95;;;;;;;12.99;94.65;97711.47;5030010;28;20042;-61
2021/10/21 11:14:33;;;;;;;12.18;8.18;;;;;;;13.06;94.06;97714.47;5016269;28;20083;-58
2021/10/21 11:16:59;;;;;;;12.07;7.70;;;;;;;13.01;94.28;97713.97;5033360;28;20052;-59
2021/10/21 11:19:44;;;;;;;13.73;7.68;;;;;;;13.07;94.05;97723.97;5013258;28;20050;-60
2021/10/21 11:22:11;;;;;;;10.38;6.80;;;;;;;13.05;93.74;97713.63;5017796;28;20072;-60
2021/10/21 11:24:46;;;;;;;9.05;7.13;;;;;;;13.09;94.16;97707.22;5010682;28;20092;-60